Portada
METAR-TAF:

METAR-TAF

Aeropuertos :

Atenas, Grecia

Aeropuerto Internacional Eleftherios Venizelos

latitud: 37-56N, longitud: 023-56E, altitud: 94 m

Observación

El informe se hizo hace 24 minutos, a las 01:50 UTC
Viento 1 kt con dirección variable
Temperatura 10°C
Humedad 71%
Presión 1020 hPa
Visibilidad 10 km o más
sin nubes por debajo de 1500 m y sin presencia de cumulonimbus.

METAR: LGAV 260150Z VRB01KT CAVOK 10/05 Q1020 NOSIG

Hora: 05:14 (02:14 UTC)

Pronóstico

El informe se hizo hace 3 horas y 14 minutos, a las 23:00 UTC
Pronóstico válido del 26 a las 00 UTC al 26 a las 24 UTC
Viento 5 kt con dirección variable
Visibilidad 10 km o más
Escasas nubes a una altura de 3000 ft

TAF: LGAV 252300Z 2600/2624 VRB05KT 9999 FEW030

Observaciones y pronósticos meteorológicos de más de 4000 aeropuertos (mensajes METAR y TAF).

Los puntos amarillos y rojos representan las estaciones disponibles.

Ponga el ratón en el punto deseado para ver el nombre de la estación.

Haga clic para ver las observaciones y los pronósticos meteorológicos.

Para cambiar el mapa : haga clic en los botones verdes con una cruz de color negro para hacer un zoom, en el botón verde con un guión para alejar o en las flechas verdes para mapas adyacentes.


METAR-TAF: